createdAt,value
2019-02-20T00:01:49.179Z,19.67
2019-02-20T00:04:51.843Z,29.10
2019-02-20T00:07:54.394Z,17.93
2019-02-20T00:10:56.935Z,18.87
2019-02-20T00:13:59.479Z,14.57
2019-02-20T00:17:02.181Z,18.80
2019-02-20T00:20:04.838Z,26.40
2019-02-20T00:23:07.423Z,15.57
2019-02-20T00:26:10.143Z,14.40
2019-02-20T00:29:12.685Z,17.93
2019-02-20T00:32:17.029Z,15.60
2019-02-20T00:35:19.574Z,21.60
2019-02-20T00:38:22.271Z,19.43
2019-02-20T00:41:25.120Z,17.10
2019-02-20T00:44:39.778Z,19.03
2019-02-20T00:47:59.925Z,24.30
2019-02-20T00:51:10.584Z,13.33
2019-02-20T00:54:13.218Z,21.43
2019-02-20T00:57:15.901Z,17.10
2019-02-20T01:00:18.480Z,27.03
2019-02-20T01:03:21.275Z,20.50
2019-02-20T01:06:25.805Z,14.23
2019-02-20T01:09:28.447Z,19.87
2019-02-20T01:12:31.273Z,15.97
2019-02-20T01:15:35.847Z,16.13
2019-02-20T01:18:38.415Z,16.27
2019-02-20T01:21:41.151Z,16.57
2019-02-20T01:24:43.755Z,12.97
2019-02-20T01:27:46.455Z,13.80
2019-02-20T01:30:49.027Z,17.10
2019-02-20T01:33:51.710Z,19.53
2019-02-20T01:36:54.304Z,22.57
2019-02-20T01:39:56.832Z,19.20
2019-02-20T01:42:59.535Z,22.27
2019-02-20T01:46:02.209Z,18.43
2019-02-20T01:49:04.886Z,21.67
2019-02-20T01:52:14.167Z,23.30
2019-02-20T01:55:16.774Z,18.67
2019-02-20T01:58:23.138Z,17.53
2019-02-20T02:01:25.797Z,24.73
2019-02-20T02:04:29.533Z,19.23
2019-02-20T02:07:32.283Z,20.57
2019-02-20T02:10:34.927Z,20.60
2019-02-20T02:13:37.624Z,13.87
2019-02-20T02:16:40.368Z,17.47
2019-02-20T02:19:43.048Z,18.47
2019-02-20T02:22:45.608Z,20.57
2019-02-20T02:25:48.184Z,17.80
2019-02-20T02:28:50.839Z,19.63
2019-02-20T02:31:53.474Z,16.83
2019-02-20T02:34:56.160Z,19.40
2019-02-20T02:37:58.839Z,18.13
2019-02-20T02:41:01.540Z,17.40
2019-02-20T02:44:04.199Z,24.93
2019-02-20T02:47:06.880Z,17.50
2019-02-20T02:50:09.517Z,15.93
2019-02-20T02:53:12.209Z,20.53
2019-02-20T02:56:14.732Z,18.13
2019-02-20T02:59:17.353Z,15.13
2019-02-20T03:02:19.926Z,26.03
2019-02-20T03:05:22.651Z,18.30
2019-02-20T03:08:25.338Z,24.13
2019-02-20T03:11:27.983Z,17.70
2019-02-20T03:14:30.647Z,24.60
2019-02-20T03:17:34.329Z,19.53
2019-02-20T03:20:37.997Z,19.03
2019-02-20T03:23:40.782Z,25.50
2019-02-20T03:26:43.587Z,19.03
2019-02-20T03:29:46.178Z,19.73
2019-02-20T03:32:48.821Z,14.90
2019-02-20T03:35:51.507Z,17.60
2019-02-20T03:38:54.254Z,20.53
2019-02-20T03:41:56.946Z,18.53
2019-02-20T03:44:59.626Z,16.30
2019-02-20T03:48:02.493Z,29.40
2019-02-20T03:51:05.153Z,21.50
2019-02-20T03:54:07.708Z,21.33
2019-02-20T03:57:10.325Z,30.70
2019-02-20T04:00:13.003Z,27.80
2019-02-20T04:03:15.762Z,18.03
2019-02-20T04:06:18.453Z,22.33
2019-02-20T04:09:21.062Z,18.33
2019-02-20T04:12:23.782Z,24.90
2019-02-20T04:15:26.546Z,23.57
2019-02-20T04:18:29.362Z,20.50
2019-02-20T04:21:31.873Z,20.53
2019-02-20T04:24:37.463Z,23.30
2019-02-20T04:27:40.137Z,22.73
2019-02-20T04:30:42.779Z,21.57
2019-02-20T04:33:45.424Z,21.73
2019-02-20T04:36:48.145Z,21.50
2019-02-20T04:39:50.789Z,26.07
2019-02-20T04:42:53.390Z,26.93
2019-02-20T04:45:55.976Z,20.63
2019-02-20T04:48:58.628Z,27.90
2019-02-20T04:52:01.271Z,24.07
2019-02-20T04:55:04.337Z,25.33
2019-02-20T04:58:20.193Z,24.87
2019-02-20T05:01:22.761Z,27.60
2019-02-20T05:04:25.464Z,23.53
2019-02-20T05:07:28.032Z,22.73
2019-02-20T05:10:30.580Z,26.17
2019-02-20T05:13:33.185Z,24.70
2019-02-20T05:16:35.848Z,27.90
2019-02-20T05:19:38.526Z,36.20
2019-02-20T05:22:41.206Z,27.80
2019-02-20T05:25:43.890Z,25.50
2019-02-20T05:28:46.688Z,27.93
2019-02-20T05:31:49.329Z,39.20
2019-02-20T05:34:51.883Z,42.43
2019-02-20T05:37:54.452Z,33.43
2019-02-20T05:40:57.178Z,25.80
2019-02-20T05:43:59.824Z,33.57
2019-02-20T05:47:02.882Z,26.53
2019-02-20T05:50:05.893Z,32.30
2019-02-20T05:53:08.406Z,36.50
2019-02-20T05:56:11.123Z,31.23
2019-02-20T05:59:13.903Z,30.13
2019-02-20T06:02:16.569Z,37.13
2019-02-20T06:05:19.082Z,38.27
2019-02-20T06:08:21.689Z,34.03
2019-02-20T06:11:24.367Z,34.43
2019-02-20T06:14:27.102Z,32.47
2019-02-20T06:17:29.899Z,31.60
2019-02-20T06:20:32.692Z,31.57
2019-02-20T06:23:35.358Z,35.07
2019-02-20T06:26:42.996Z,32.23
2019-02-20T06:29:47.582Z,38.43
2019-02-20T06:32:50.208Z,34.10
2019-02-20T06:35:52.793Z,40.67
2019-02-20T06:38:55.403Z,35.23
2019-02-20T06:41:58.047Z,42.63
2019-02-20T06:45:00.766Z,31.63
2019-02-20T06:48:03.448Z,32.73
2019-02-20T06:51:05.960Z,38.80
2019-02-20T06:54:08.507Z,33.27
2019-02-20T06:57:11.151Z,36.83
2019-02-20T07:00:14.161Z,30.83
2019-02-20T07:03:16.814Z,34.77
2019-02-20T07:06:36.329Z,33.53
2019-02-20T07:10:20.819Z,34.77
2019-02-20T07:13:54.158Z,33.13
2019-02-20T07:17:33.044Z,31.17
2019-02-20T07:21:19.721Z,36.00
2019-02-20T07:24:37.132Z,37.67
2019-02-20T07:28:07.333Z,30.00
2019-02-20T07:31:09.902Z,29.27
2019-02-20T07:34:13.515Z,30.73
2019-02-20T07:37:17.097Z,29.50
2019-02-20T07:40:19.813Z,30.37
2019-02-20T07:43:22.422Z,25.77
2019-02-20T07:46:25.003Z,33.77
2019-02-20T07:49:27.626Z,30.73
2019-02-20T07:52:30.255Z,25.57
2019-02-20T07:55:32.933Z,32.50
2019-02-20T07:58:35.526Z,29.07
2019-02-20T08:01:38.233Z,26.93
2019-02-20T08:04:40.911Z,29.23
2019-02-20T08:07:43.485Z,41.27
2019-02-20T08:10:46.217Z,31.67
2019-02-20T08:13:48.870Z,29.33
2019-02-20T08:16:52.746Z,37.37
2019-02-20T08:20:12.252Z,27.87
2019-02-20T08:23:14.927Z,28.03
2019-02-20T08:26:17.583Z,37.37
2019-02-20T08:29:20.241Z,33.43
2019-02-20T08:32:22.915Z,28.70
2019-02-20T08:35:25.689Z,28.53
2019-02-20T08:38:28.239Z,28.83
2019-02-20T08:41:30.796Z,33.17
2019-02-20T08:44:33.401Z,29.20
2019-02-20T08:47:37.107Z,26.97
2019-02-20T08:50:39.682Z,22.00
2019-02-20T08:53:42.404Z,25.97
2019-02-20T08:56:45.055Z,27.27
2019-02-20T08:59:47.684Z,33.07
2019-02-20T09:02:50.342Z,28.43
2019-02-20T09:05:53.090Z,29.77
2019-02-20T09:08:55.761Z,35.10
2019-02-20T09:11:58.370Z,35.97
2019-02-20T09:15:00.955Z,31.10
2019-02-20T09:18:03.621Z,28.03
2019-02-20T09:21:06.310Z,27.60
2019-02-20T09:24:09.006Z,27.47
2019-02-20T09:27:11.709Z,33.33
2019-02-20T09:30:14.456Z,28.13
2019-02-20T09:33:18.312Z,29.80
2019-02-20T09:36:20.835Z,28.57
2019-02-20T09:39:29.811Z,27.60
2019-02-20T09:42:32.511Z,30.33
2019-02-20T09:45:42.056Z,23.07
2019-02-20T09:48:41.202Z,24.07
2019-02-20T09:51:43.812Z,24.17
2019-02-20T09:54:46.355Z,24.80
2019-02-20T09:57:49.026Z,22.30
2019-02-20T10:00:51.675Z,24.40
2019-02-20T10:03:54.450Z,20.50
2019-02-20T10:06:56.990Z,23.53
2019-02-20T10:09:59.572Z,21.83
2019-02-20T10:13:03.814Z,32.33
2019-02-20T10:16:06.442Z,21.67
2019-02-20T10:19:09.093Z,19.97
2019-02-20T10:22:11.681Z,29.33
2019-02-20T10:25:14.388Z,24.33
2019-02-20T10:28:17.010Z,21.63
2019-02-20T10:31:19.581Z,17.70
2019-02-20T10:34:22.134Z,18.13
2019-02-20T10:37:24.751Z,20.83
2019-02-20T10:40:27.359Z,24.77
2019-02-20T10:43:29.992Z,18.50
2019-02-20T10:46:32.752Z,20.07
2019-02-20T10:49:35.472Z,17.80
2019-02-20T10:52:40.870Z,33.60
2019-02-20T10:55:42.600Z,30.13
2019-02-20T10:58:45.162Z,17.57
2019-02-20T11:01:47.805Z,15.77
2019-02-20T11:04:50.637Z,28.17
2019-02-20T11:07:53.296Z,20.33
2019-02-20T11:10:55.891Z,18.57
2019-02-20T11:13:58.533Z,14.40
2019-02-20T11:17:01.069Z,18.90
2019-02-20T11:20:03.809Z,16.30
2019-02-20T11:23:06.382Z,15.93
2019-02-20T11:26:17.550Z,18.17
2019-02-20T11:29:13.661Z,15.70
2019-02-20T11:32:16.260Z,10.97
2019-02-20T11:35:18.916Z,22.30
2019-02-20T11:38:21.600Z,14.60
2019-02-20T11:41:24.156Z,15.80
2019-02-20T11:44:26.898Z,13.90
2019-02-20T11:47:29.556Z,15.93
2019-02-20T11:50:32.164Z,17.90
2019-02-20T11:53:37.209Z,18.83
2019-02-20T11:56:39.506Z,16.60
2019-02-20T11:59:42.044Z,15.00
2019-02-20T12:02:44.644Z,13.63
2019-02-20T12:05:47.456Z,17.03
2019-02-20T12:08:50.089Z,18.03
2019-02-20T12:11:54.028Z,12.90
2019-02-20T12:14:58.626Z,13.37
2019-02-20T12:18:01.184Z,17.30
2019-02-20T12:21:03.725Z,12.73
2019-02-20T12:24:06.349Z,12.33
2019-02-20T12:27:09.079Z,9.90
2019-02-20T12:30:11.955Z,13.43
2019-02-20T12:33:14.797Z,9.90
2019-02-20T12:36:17.471Z,14.53
2019-02-20T12:39:20.846Z,20.10
2019-02-20T12:42:23.461Z,11.60
2019-02-20T12:45:26.205Z,15.67
2019-02-20T12:48:28.866Z,18.90
2019-02-20T12:51:31.449Z,15.10
2019-02-20T12:54:34.190Z,10.03
2019-02-20T12:57:36.784Z,13.67
2019-02-20T13:00:39.468Z,19.53
2019-02-20T13:03:42.117Z,17.47
2019-02-20T13:06:44.892Z,15.50
2019-02-20T13:09:47.560Z,16.50
2019-02-20T13:12:50.201Z,11.60
2019-02-20T13:15:52.881Z,15.33
2019-02-20T13:18:55.519Z,12.53
2019-02-20T13:21:58.116Z,13.90
2019-02-20T13:25:00.795Z,9.37
2019-02-20T13:28:03.420Z,14.17
2019-02-20T13:31:07.009Z,13.90
2019-02-20T13:34:09.587Z,13.57
2019-02-20T13:37:12.365Z,13.30
2019-02-20T13:40:14.995Z,13.60
2019-02-20T13:43:17.633Z,14.97
2019-02-20T13:46:20.775Z,15.73
2019-02-20T13:49:23.319Z,11.77
2019-02-20T13:52:26.071Z,11.70
2019-02-20T13:55:34.479Z,13.10
2019-02-20T13:58:33.308Z,12.47
2019-02-20T14:01:35.849Z,18.40
2019-02-20T14:04:38.578Z,15.27
2019-02-20T14:07:41.195Z,23.73
2019-02-20T14:10:43.904Z,16.23
2019-02-20T14:13:46.745Z,17.10
2019-02-20T14:16:49.448Z,14.00
2019-02-20T14:19:52.139Z,17.13
2019-02-20T14:22:54.783Z,13.20
2019-02-20T14:25:57.599Z,12.90
2019-02-20T14:29:00.604Z,13.77
2019-02-20T14:32:03.246Z,20.67
2019-02-20T14:35:06.414Z,17.93
2019-02-20T14:38:09.054Z,17.43
2019-02-20T14:41:11.748Z,18.27
2019-02-20T14:44:14.389Z,17.90
2019-02-20T14:47:17.146Z,21.63
2019-02-20T14:50:19.802Z,19.90
2019-02-20T14:53:22.565Z,15.30
2019-02-20T14:56:25.240Z,18.27
2019-02-20T14:59:27.955Z,21.87
2019-02-20T15:02:30.589Z,25.60
2019-02-20T15:05:33.264Z,21.50
2019-02-20T15:08:35.986Z,23.90
2019-02-20T15:11:39.079Z,17.53
2019-02-20T15:14:41.763Z,23.43
2019-02-20T15:17:44.498Z,15.50
2019-02-20T15:20:48.789Z,26.43
2019-02-20T15:23:51.449Z,28.23
2019-02-20T15:26:54.121Z,24.93
2019-02-20T15:29:56.917Z,24.23
2019-02-20T15:32:59.803Z,26.03
2019-02-20T15:36:02.434Z,28.10
2019-02-20T15:39:07.055Z,24.70
2019-02-20T15:42:10.558Z,21.70
2019-02-20T15:45:13.238Z,24.77
2019-02-20T15:48:23.048Z,21.53
2019-02-20T15:51:21.404Z,28.40
2019-02-20T15:54:24.066Z,34.07
2019-02-20T15:57:26.785Z,29.80
2019-02-20T16:00:29.660Z,23.87
2019-02-20T16:03:32.624Z,24.73
2019-02-20T16:06:35.304Z,30.40
2019-02-20T16:09:37.997Z,27.20
2019-02-20T16:12:42.953Z,29.53
2019-02-20T16:15:45.585Z,35.03
2019-02-20T16:18:48.389Z,41.60
2019-02-20T16:21:51.169Z,28.10
2019-02-20T16:24:53.888Z,35.37
2019-02-20T16:27:56.464Z,31.07
2019-02-20T16:30:59.190Z,32.03
2019-02-20T16:34:01.939Z,36.00
2019-02-20T16:37:04.609Z,45.43
2019-02-20T16:40:08.265Z,77.03
2019-02-20T16:43:10.985Z,39.40
2019-02-20T16:46:13.729Z,44.53
2019-02-20T16:49:16.462Z,29.50
2019-02-20T16:52:19.218Z,30.20
2019-02-20T16:55:23.180Z,36.53
2019-02-20T16:58:25.844Z,44.20
2019-02-20T17:01:29.764Z,44.50
2019-02-20T17:04:32.860Z,38.20
2019-02-20T17:07:35.673Z,40.90
2019-02-20T17:10:38.435Z,37.27
2019-02-20T17:13:42.101Z,39.97
2019-02-20T17:16:44.903Z,31.63
2019-02-20T17:19:47.641Z,35.60
2019-02-20T17:22:50.314Z,28.20
2019-02-20T17:25:52.980Z,31.73
2019-02-20T17:28:55.685Z,35.30
2019-02-20T17:31:59.254Z,32.20
2019-02-20T17:35:01.916Z,35.10
2019-02-20T17:38:04.737Z,34.23
2019-02-20T17:41:07.497Z,29.03
2019-02-20T17:44:10.248Z,30.73
2019-02-20T17:47:13.288Z,39.13
2019-02-20T17:50:16.047Z,33.83
2019-02-20T17:53:18.685Z,33.67
2019-02-20T17:56:23.613Z,30.20
2019-02-20T17:59:26.182Z,33.37
2019-02-20T18:02:28.753Z,35.47
2019-02-20T18:05:33.190Z,32.17
2019-02-20T18:08:35.843Z,33.57
2019-02-20T18:11:38.435Z,32.13
2019-02-20T18:14:41.097Z,30.10
2019-02-20T18:17:43.830Z,39.33
2019-02-20T18:20:46.496Z,33.50
2019-02-20T18:23:49.293Z,37.87
2019-02-20T18:26:51.855Z,38.97
2019-02-20T18:29:54.538Z,41.43
2019-02-20T18:32:57.154Z,41.87
2019-02-20T18:35:59.699Z,38.87
2019-02-20T18:39:05.127Z,39.77
2019-02-20T18:42:09.950Z,42.60
2019-02-20T18:45:12.980Z,44.33
2019-02-20T18:48:15.723Z,40.80
2019-02-20T18:51:18.479Z,43.47
2019-02-20T18:54:21.453Z,38.20
2019-02-20T18:57:24.259Z,46.80
2019-02-20T19:00:26.954Z,40.03
2019-02-20T19:03:29.623Z,44.30
2019-02-20T19:06:32.231Z,43.50
2019-02-20T19:09:34.920Z,47.43
2019-02-20T19:13:24.476Z,51.73
2019-02-20T19:17:42.397Z,51.70
2019-02-20T19:21:19.839Z,45.17
2019-02-20T19:24:54.730Z,47.40
2019-02-20T19:28:20.040Z,50.30
2019-02-20T19:31:49.716Z,43.63
2019-02-20T19:35:21.953Z,45.00
2019-02-20T19:38:51.974Z,43.53
2019-02-20T19:42:43.127Z,49.20
2019-02-20T19:46:19.724Z,41.23
2019-02-20T19:50:03.486Z,41.10
2019-02-20T19:53:52.165Z,45.00
2019-02-20T19:57:40.727Z,40.87
2019-02-20T20:01:28.214Z,39.93
2019-02-20T20:04:49.449Z,43.27
2019-02-20T20:08:10.348Z,39.23
2019-02-20T20:11:50.755Z,40.57
2019-02-20T20:15:21.260Z,38.53
2019-02-20T20:19:06.819Z,38.43
2019-02-20T20:22:57.371Z,37.60
2019-02-20T20:26:51.077Z,36.30
2019-02-20T20:30:27.796Z,35.90
2019-02-20T20:34:14.472Z,44.40
2019-02-20T20:37:42.379Z,44.40
2019-02-20T20:41:27.019Z,39.17
2019-02-20T20:45:00.420Z,37.83
2019-02-20T20:48:34.597Z,38.43
2019-02-20T20:52:34.161Z,42.43
2019-02-20T20:56:02.528Z,38.77
2019-02-20T20:59:23.504Z,41.50
2019-02-20T21:02:34.709Z,38.37
2019-02-20T21:06:27.495Z,39.80
2019-02-20T21:10:27.313Z,37.10
2019-02-20T21:13:58.151Z,41.50
2019-02-20T21:17:37.811Z,42.70
2019-02-20T21:21:30.658Z,38.00
2019-02-20T21:25:15.713Z,36.87
2019-02-20T21:28:51.421Z,33.83
2019-02-20T21:32:26.893Z,28.60
2019-02-20T21:36:01.642Z,33.97
2019-02-20T21:39:29.332Z,34.97
2019-02-20T21:43:07.642Z,30.83
2019-02-20T21:47:06.432Z,36.23
2019-02-20T21:50:46.531Z,36.07
2019-02-20T21:54:28.767Z,30.53
2019-02-20T21:58:13.066Z,35.30
2019-02-20T22:01:34.931Z,31.80
2019-02-20T22:05:00.014Z,32.97
2019-02-20T22:08:29.804Z,31.73
2019-02-20T22:11:56.973Z,31.10
2019-02-20T22:15:25.498Z,31.53
2019-02-20T22:19:11.194Z,29.33
2019-02-20T22:22:57.321Z,33.77
2019-02-20T22:26:16.349Z,28.80
2019-02-20T22:29:55.826Z,33.80
2019-02-20T22:33:32.445Z,32.73
2019-02-20T22:37:17.933Z,34.00
2019-02-20T22:40:50.687Z,31.73
2019-02-20T22:44:28.409Z,31.53
2019-02-20T22:47:41.903Z,29.23
2019-02-20T22:51:18.803Z,32.17
2019-02-20T22:55:05.648Z,31.87
2019-02-20T22:59:05.388Z,30.53
2019-02-20T23:02:40.162Z,39.60
2019-02-20T23:06:12.426Z,37.93
2019-02-20T23:10:00.296Z,34.83
2019-02-20T23:13:14.837Z,37.13
2019-02-20T23:16:17.373Z,45.17
2019-02-20T23:19:19.968Z,35.40
2019-02-20T23:22:22.582Z,36.23
2019-02-20T23:25:25.259Z,33.67
2019-02-20T23:28:27.842Z,37.30
2019-02-20T23:31:30.467Z,34.40
2019-02-20T23:34:33.013Z,37.63
2019-02-20T23:37:35.566Z,38.60
2019-02-20T23:40:38.286Z,36.13
2019-02-20T23:43:40.882Z,42.80
2019-02-20T23:46:43.676Z,34.27
2019-02-20T23:49:46.286Z,36.83
2019-02-20T23:52:48.841Z,31.37
2019-02-20T23:55:51.395Z,34.53
2019-02-20T23:58:54.040Z,33.90
